Time;durP1;ratioP1;P1;durP2;ratioP2;P2;SDS_P1;SDS_P2;PMS_P1;PMS_P2;Temp;Humidity;BMP_temperature;BMP_pressure;BME280_temperature;BME280_humidity;BME280_pressure;Samples;Min_cycle;Max_cycle;Signal;HPM_P1;HPM_P2
2023/01/06 00:01:06;;;;;;;35.92;8.93;;;10.50;99.90;;;;;;4957585;28;20454;-71
2023/01/06 00:03:31;;;;;;;33.28;9.35;;;10.30;99.90;;;;;;4955018;28;21025;-71
2023/01/06 00:05:59;;;;;;;31.13;8.57;;;10.40;99.90;;;;;;4954118;28;20524;-71
2023/01/06 00:08:25;;;;;;;31.77;8.95;;;10.40;99.90;;;;;;4952986;28;20790;-69
2023/01/06 00:10:51;;;;;;;30.80;7.20;;;10.60;99.90;;;;;;4954058;28;20492;-70
2023/01/06 00:13:17;;;;;;;31.07;6.97;;;10.50;99.90;;;;;;4955477;28;20444;-70
2023/01/06 00:15:42;;;;;;;29.90;7.63;;;10.30;99.90;;;;;;4957390;28;21183;-70
2023/01/06 00:18:08;;;;;;;34.40;7.90;;;10.50;99.90;;;;;;4955853;28;20803;-70
2023/01/06 00:20:33;;;;;;;25.70;6.75;;;10.60;99.90;;;;;;4953136;28;21028;-70
2023/01/06 00:22:59;;;;;;;24.65;5.55;;;10.40;99.90;;;;;;4940617;28;20928;-71
2023/01/06 00:25:25;;;;;;;31.23;6.95;;;10.50;99.90;;;;;;4973333;28;20911;-70
2023/01/06 00:27:51;;;;;;;26.58;7.10;;;10.40;99.90;;;;;;4960698;28;20420;-70
2023/01/06 00:30:16;;;;;;;20.85;4.40;;;10.40;99.90;;;;;;4960117;28;20802;-70
2023/01/06 00:32:42;;;;;;;24.87;6.20;;;10.60;99.90;;;;;;4972264;28;20439;-70
2023/01/06 00:35:08;;;;;;;28.90;6.27;;;10.60;99.90;;;;;;4960286;28;20823;-70
2023/01/06 00:37:34;;;;;;;20.38;5.13;;;10.40;99.90;;;;;;4960226;28;20451;-70
2023/01/06 00:39:59;;;;;;;20.10;4.97;;;10.60;99.90;;;;;;4959716;28;20428;-70
2023/01/06 00:42:25;;;;;;;20.40;5.03;;;10.50;99.90;;;;;;4956408;28;20776;-70
2023/01/06 00:44:51;;;;;;;18.20;5.20;;;10.70;99.90;;;;;;4960743;28;20420;-69
2023/01/06 00:47:17;;;;;;;18.50;5.60;;;10.50;99.90;;;;;;4952945;28;20830;-69
2023/01/06 00:49:42;;;;;;;14.68;4.20;;;10.60;99.90;;;;;;4958762;28;20436;-70
2023/01/06 00:52:08;;;;;;;18.25;4.93;;;10.40;99.90;;;;;;4959813;28;20439;-70
2023/01/06 00:54:35;;;;;;;20.40;4.57;;;10.60;99.90;;;;;;4957930;28;20424;-70
2023/01/06 00:57:01;;;;;;;15.68;4.72;;;10.60;99.90;;;;;;4958950;28;20984;-70
2023/01/06 00:59:27;;;;;;;15.65;4.40;;;10.50;99.90;;;;;;4960639;28;20475;-71
2023/01/06 01:01:55;;;;;;;16.95;3.95;;;10.60;99.90;;;;;;4960804;28;20458;-71
2023/01/06 01:04:21;;;;;;;15.70;4.97;;;10.50;99.90;;;;;;4958488;28;20469;-71
2023/01/06 01:06:47;;;;;;;14.85;3.10;;;10.40;99.90;;;;;;4956776;28;20453;-70
2023/01/06 01:09:20;;;;;;;14.25;3.35;;;10.30;99.90;;;;;;4957784;28;20847;-70
2023/01/06 01:14:31;;;;;;;13.15;3.20;;;10.10;99.90;;;;;;4954211;28;20440;-70
2023/01/06 01:16:57;;;;;;;11.10;2.97;;;10.40;99.90;;;;;;4959837;28;20450;-71
2023/01/06 01:19:23;;;;;;;15.23;3.73;;;10.40;99.90;;;;;;4956272;28;20504;-70
2023/01/06 01:21:49;;;;;;;13.98;3.15;;;10.40;99.90;;;;;;4960747;28;20416;-70
2023/01/06 01:24:14;;;;;;;12.63;3.05;;;10.20;99.90;;;;;;4957769;28;20440;-71
2023/01/06 01:26:40;;;;;;;11.95;3.92;;;10.30;99.90;;;;;;4957861;28;20443;-69
2023/01/06 01:29:09;;;;;;;12.50;4.18;;;10.40;99.90;;;;;;4959369;28;20434;-70
2023/01/06 01:31:34;;;;;;;15.15;4.95;;;10.20;99.90;;;;;;4959565;28;20443;-70
2023/01/06 01:34:00;;;;;;;13.13;3.47;;;10.30;99.90;;;;;;4958026;28;20899;-71
2023/01/06 01:36:26;;;;;;;12.10;3.58;;;10.10;99.90;;;;;;4959097;28;20851;-71
2023/01/06 01:38:52;;;;;;;13.30;3.70;;;10.30;99.90;;;;;;4958184;28;20422;-70
2023/01/06 01:41:21;;;;;;;11.60;3.83;;;10.30;99.90;;;;;;4964459;28;20867;-70
2023/01/06 01:43:57;;;;;;;13.40;4.03;;;10.40;99.90;;;;;;4958271;28;21017;-71
2023/01/06 01:46:36;;;;;;;12.48;3.97;;;10.10;99.90;;;;;;4959279;28;20434;-70
2023/01/06 01:49:16;;;;;;;17.17;4.43;;;10.20;99.90;;;;;;4953381;28;20432;-71
2023/01/06 01:51:44;;;;;;;15.60;4.35;;;10.30;99.90;;;;;;4957164;28;20440;-71
2023/01/06 01:54:14;;;;;;;12.93;4.25;;;10.30;99.90;;;;;;4956083;28;20949;-70
2023/01/06 01:56:45;;;;;;;14.45;4.25;;;10.30;99.90;;;;;;4956743;28;21103;-69
2023/01/06 01:59:18;;;;;;;12.48;4.70;;;10.10;99.90;;;;;;4941397;28;20519;-69
2023/01/06 02:01:45;;;;;;;14.73;4.68;;;10.20;99.90;;;;;;4959546;28;20431;-70
2023/01/06 02:04:14;;;;;;;11.85;4.13;;;10.20;99.90;;;;;;4957750;28;20448;-70
2023/01/06 02:06:40;;;;;;;11.50;3.95;;;10.30;99.90;;;;;;4952695;28;20716;-69
2023/01/06 02:09:13;;;;;;;11.40;4.10;;;10.30;99.90;;;;;;4953705;28;20463;-70
2023/01/06 02:11:40;;;;;;;14.80;4.88;;;10.30;99.90;;;;;;4958771;28;20424;-70
2023/01/06 02:14:06;;;;;;;11.80;4.22;;;10.20;99.90;;;;;;4957463;28;20432;-70
2023/01/06 02:16:40;;;;;;;12.68;2.92;;;10.30;99.90;;;;;;4956216;28;20482;-70
2023/01/06 02:19:47;;;;;;;10.73;3.72;;;10.30;99.90;;;;;;4957208;28;21357;-70
2023/01/06 02:22:38;;;;;;;13.23;3.80;;;10.20;99.90;;;;;;4939179;28;20952;-69
2023/01/06 02:25:10;;;;;;;11.75;3.55;;;10.30;99.90;;;;;;4949106;28;20504;-71
2023/01/06 02:28:33;;;;;;;11.32;3.30;;;10.30;99.90;;;;;;4951472;28;20424;-70
2023/01/06 02:31:10;;;;;;;13.80;3.53;;;10.20;99.90;;;;;;4882581;29;20449;-70
2023/01/06 02:33:57;;;;;;;10.00;2.60;;;10.20;99.90;;;;;;4898828;29;21011;-69
2023/01/06 02:37:07;;;;;;;9.40;2.80;;;10.20;99.90;;;;;;4933533;28;20504;-70
2023/01/06 02:39:51;;;;;;;10.15;2.67;;;10.30;99.90;;;;;;4922607;28;20451;-69
2023/01/06 02:42:25;;;;;;;9.48;2.30;;;10.30;99.90;;;;;;4956122;28;20446;-70
2023/01/06 02:45:08;;;;;;;9.82;2.72;;;10.30;99.90;;;;;;4954188;28;20910;-70
2023/01/06 02:47:51;;;;;;;9.18;3.50;;;10.30;99.90;;;;;;4956447;28;20424;-70
2023/01/06 02:50:45;;;;;;;8.40;2.40;;;10.20;99.90;;;;;;4952712;28;20444;-70
2023/01/06 02:53:48;;;;;;;8.60;2.25;;;10.00;99.90;;;;;;4945821;28;20942;-69
2023/01/06 02:56:14;;;;;;;7.55;1.80;;;10.10;99.90;;;;;;4957897;28;20515;-71
2023/01/06 02:58:48;;;;;;;6.78;2.30;;;10.00;99.90;;;;;;4957150;28;20444;-70
2023/01/06 03:01:30;;;;;;;6.72;2.85;;;10.20;99.90;;;;;;4958239;28;20439;-70
2023/01/06 03:04:00;;;;;;;6.05;2.30;;;10.10;99.90;;;;;;4956813;28;20440;-71
2023/01/06 03:06:29;;;;;;;9.20;2.70;;;10.20;99.90;;;;;;4941150;28;20435;-71
2023/01/06 03:08:57;;;;;;;8.73;3.00;;;10.30;99.90;;;;;;4483131;23;22520;-78
2023/01/06 03:11:25;;;;;;;10.63;3.53;;;10.10;99.90;;;;;;4976417;28;20471;-79
2023/01/06 03:14:20;;;;;;;8.18;3.22;;;10.10;99.90;;;;;;4975696;28;20422;-76
2023/01/06 03:16:46;;;;;;;8.52;3.53;;;10.20;99.90;;;;;;4977815;28;20476;-75
2023/01/06 03:19:12;;;;;;;7.75;4.00;;;10.10;99.90;;;;;;4976141;28;20501;-79
2023/01/06 03:21:42;;;;;;;6.93;3.23;;;10.00;99.90;;;;;;4978904;28;20517;-79
2023/01/06 03:24:09;;;;;;;6.40;3.22;;;10.20;99.90;;;;;;4973031;28;20453;-81
2023/01/06 03:26:36;;;;;;;5.43;3.03;;;10.20;99.90;;;;;;4975284;28;21161;-79
2023/01/06 03:29:06;;;;;;;6.53;3.00;;;10.10;99.90;;;;;;4975363;28;20484;-74
2023/01/06 03:31:35;;;;;;;5.47;3.40;;;10.20;99.90;;;;;;4973922;28;20552;-79
2023/01/06 03:34:25;;;;;;;7.28;3.60;;;10.20;99.90;;;;;;4972386;28;20513;-80
2023/01/06 03:37:00;;;;;;;7.18;3.92;;;10.30;99.90;;;;;;4976370;28;20439;-78
2023/01/06 03:39:57;;;;;;;8.25;3.85;;;10.20;99.90;;;;;;4968648;28;20468;-77
2023/01/06 03:46:20;;;;;;;10.38;5.95;;;10.40;99.90;;;;;;4954417;28;20442;-80
2023/01/06 03:49:00;;;;;;;7.47;5.03;;;10.20;99.90;;;;;;4960172;28;20492;-79
2023/01/06 03:51:53;;;;;;;7.73;4.60;;;10.30;99.90;;;;;;4971112;28;20583;-79
2023/01/06 03:54:28;;;;;;;5.70;4.47;;;10.30;99.90;;;;;;4969999;28;20452;-78
2023/01/06 03:57:04;;;;;;;7.13;4.32;;;10.40;99.90;;;;;;4976794;28;20434;-78
2023/01/06 03:59:35;;;;;;;9.93;5.15;;;10.20;99.90;;;;;;4976024;28;20434;-77
2023/01/06 04:02:01;;;;;;;8.00;4.25;;;10.40;99.90;;;;;;4977956;28;20497;-78
2023/01/06 04:04:27;;;;;;;6.55;4.20;;;10.20;99.90;;;;;;4973063;28;20971;-78
2023/01/06 04:06:52;;;;;;;7.77;4.83;;;10.40;99.90;;;;;;4975939;28;20445;-77
2023/01/06 04:09:18;;;;;;;6.75;5.18;;;10.50;99.90;;;;;;4970866;28;20952;-78
2023/01/06 04:14:28;;;;;;;6.28;4.40;;;10.30;99.90;;;;;;4973758;28;20438;-78
2023/01/06 04:16:53;;;;;;;6.82;4.43;;;10.20;99.90;;;;;;4974892;28;20434;-76
2023/01/06 04:19:19;;;;;;;7.80;4.40;;;10.20;99.90;;;;;;4975781;28;20569;-77
2023/01/06 04:21:44;;;;;;;5.15;4.20;;;10.20;99.90;;;;;;4972917;28;20767;-76
2023/01/06 04:24:10;;;;;;;5.10;3.70;;;10.30;99.90;;;;;;4973131;28;20936;-79
2023/01/06 04:26:36;;;;;;;7.47;3.70;;;10.30;99.90;;;;;;4974097;28;20546;-78
2023/01/06 04:29:01;;;;;;;6.57;3.67;;;10.20;99.90;;;;;;4973907;28;20867;-75
2023/01/06 04:31:27;;;;;;;6.28;2.78;;;10.20;99.90;;;;;;4959211;28;20465;-77
2023/01/06 04:33:53;;;;;;;4.67;2.40;;;10.30;99.90;;;;;;4978513;28;20426;-79
2023/01/06 04:36:19;;;;;;;6.10;2.97;;;10.30;99.90;;;;;;4977740;28;20493;-77
2023/01/06 04:38:45;;;;;;;6.00;3.03;;;10.30;99.90;;;;;;4988361;28;20536;-74
2023/01/06 04:41:11;;;;;;;6.80;3.25;;;10.30;99.90;;;;;;4974917;28;20471;-78
2023/01/06 04:43:37;;;;;;;4.55;1.92;;;10.30;99.90;;;;;;4970219;28;20438;-77
2023/01/06 04:46:03;;;;;;;5.60;1.90;;;10.30;99.90;;;;;;4973257;28;20465;-78
2023/01/06 04:48:29;;;;;;;4.38;2.10;;;10.40;99.90;;;;;;4969265;28;20501;-76
2023/01/06 04:51:02;;;;;;;5.30;2.53;;;10.40;99.90;;;;;;4972859;28;20529;-77
2023/01/06 04:53:28;;;;;;;6.88;2.10;;;10.30;99.90;;;;;;4973620;28;20430;-77
2023/01/06 04:55:54;;;;;;;5.57;2.10;;;10.40;99.90;;;;;;4973028;28;20446;-80
2023/01/06 04:58:19;;;;;;;3.78;1.95;;;10.40;99.90;;;;;;4975796;28;20473;-78
2023/01/06 05:00:45;;;;;;;6.10;2.10;;;10.30;99.90;;;;;;4973723;28;20442;-78
2023/01/06 05:03:10;;;;;;;3.87;1.97;;;10.30;99.90;;;;;;4975271;28;20434;-77
2023/01/06 05:05:37;;;;;;;3.13;1.70;;;10.40;99.90;;;;;;4973492;28;21006;-75
2023/01/06 05:08:02;;;;;;;4.95;2.50;;;10.30;99.90;;;;;;4976437;28;20430;-75
2023/01/06 05:10:28;;;;;;;6.90;1.85;;;10.20;99.90;;;;;;4912528;28;1775809;-77
2023/01/06 05:12:54;;;;;;;5.53;1.92;;;10.30;99.90;;;;;;4978648;28;20438;-77
2023/01/06 05:15:19;;;;;;;4.20;1.88;;;10.40;99.90;;;;;;4974529;28;20433;-80
2023/01/06 05:17:45;;;;;;;5.13;2.38;;;10.40;99.90;;;;;;4979859;28;20504;-79
2023/01/06 05:20:11;;;;;;;6.40;2.00;;;10.30;99.90;;;;;;4975801;28;20489;-79
2023/01/06 05:22:36;;;;;;;5.03;2.00;;;10.20;99.90;;;;;;4979052;28;20510;-76
2023/01/06 05:25:03;;;;;;;4.13;1.80;;;10.30;99.90;;;;;;4976227;28;20796;-74
2023/01/06 05:27:28;;;;;;;6.50;2.30;;;10.30;99.90;;;;;;4979077;28;20418;-78
2023/01/06 05:29:54;;;;;;;5.57;2.35;;;10.30;99.90;;;;;;4979733;28;20500;-75
2023/01/06 05:32:20;;;;;;;6.03;2.07;;;10.30;99.90;;;;;;4962792;28;20446;-77
2023/01/06 05:34:46;;;;;;;5.47;2.33;;;10.20;99.90;;;;;;4975431;28;20451;-78
2023/01/06 05:37:12;;;;;;;6.20;2.97;;;10.20;99.90;;;;;;4977341;28;20426;-78
2023/01/06 05:39:37;;;;;;;5.60;2.90;;;10.00;99.90;;;;;;4972534;28;20455;-76
2023/01/06 05:42:03;;;;;;;4.10;2.50;;;10.00;99.90;;;;;;4972429;28;20434;-75
2023/01/06 05:44:29;;;;;;;4.13;2.50;;;10.10;99.90;;;;;;4955538;28;20438;-78
2023/01/06 05:46:54;;;;;;;6.67;3.63;;;10.00;99.90;;;;;;4978316;28;20454;-74
2023/01/06 05:49:20;;;;;;;6.77;3.13;;;9.90;99.90;;;;;;4979424;28;20427;-72
2023/01/06 05:51:47;;;;;;;6.38;2.92;;;9.80;99.90;;;;;;4979636;28;20492;-73
2023/01/06 05:54:13;;;;;;;4.67;3.10;;;10.00;99.90;;;;;;4976242;28;20522;-75
2023/01/06 05:56:38;;;;;;;7.03;4.40;;;9.80;99.90;;;;;;4978108;28;20506;-75
2023/01/06 05:59:04;;;;;;;6.57;4.10;;;9.90;99.90;;;;;;4976947;28;21092;-75
2023/01/06 06:01:31;;;;;;;9.90;5.17;;;9.90;99.90;;;;;;4978576;28;20801;-75
2023/01/06 06:03:57;;;;;;;9.05;4.80;;;9.80;99.90;;;;;;4979034;28;20468;-74
2023/01/06 06:06:24;;;;;;;8.10;5.18;;;9.80;99.90;;;;;;4981209;28;20788;-75
2023/01/06 06:08:50;;;;;;;6.93;4.97;;;9.70;99.90;;;;;;4975517;28;20493;-72
2023/01/06 06:11:18;;;;;;;9.60;5.10;;;9.90;99.90;;;;;;4976518;28;20446;-76
2023/01/06 06:13:52;;;;;;;9.18;4.75;;;9.70;99.90;;;;;;4978728;28;20480;-77
2023/01/06 06:16:21;;;;;;;7.57;5.45;;;9.70;99.90;;;;;;4977126;28;20434;-76
2023/01/06 06:18:52;;;;;;;10.43;5.47;;;9.80;99.90;;;;;;4976646;28;20431;-76
2023/01/06 06:21:23;;;;;;;8.68;4.47;;;9.70;99.90;;;;;;4962148;28;20472;-75
2023/01/06 06:23:52;;;;;;;7.65;4.82;;;9.80;99.90;;;;;;4977614;28;20871;-76
2023/01/06 06:26:17;;;;;;;7.80;4.88;;;9.90;99.90;;;;;;4976183;28;20426;-76
2023/01/06 06:28:43;;;;;;;8.17;5.53;;;9.60;99.90;;;;;;4977312;28;20504;-76
2023/01/06 06:31:21;;;;;;;5.37;4.70;;;9.60;99.90;;;;;;4977319;28;20442;-77
2023/01/06 06:33:50;;;;;;;8.98;5.25;;;9.90;99.90;;;;;;4976214;28;20431;-76
2023/01/06 06:36:15;;;;;;;7.35;5.63;;;9.70;99.90;;;;;;4978333;28;20454;-75
2023/01/06 06:38:46;;;;;;;9.10;5.18;;;9.70;99.90;;;;;;4976099;28;20462;-73
2023/01/06 06:41:12;;;;;;;6.30;4.43;;;9.70;99.90;;;;;;4960166;28;20447;-73
2023/01/06 06:43:38;;;;;;;7.37;4.57;;;9.70;99.90;;;;;;4977747;28;20430;-72
2023/01/06 06:46:04;;;;;;;4.93;4.40;;;9.90;99.90;;;;;;4977931;28;20442;-75
2023/01/06 06:48:30;;;;;;;6.50;3.95;;;9.60;99.90;;;;;;4977332;28;20462;-75
2023/01/06 06:50:57;;;;;;;4.63;3.50;;;9.90;99.90;;;;;;4979974;28;20406;-75
2023/01/06 06:53:23;;;;;;;5.53;3.25;;;9.80;99.90;;;;;;4974526;28;20434;-76
2023/01/06 06:55:48;;;;;;;6.60;4.17;;;9.80;99.90;;;;;;4978306;28;20892;-73
2023/01/06 06:58:14;;;;;;;5.77;3.43;;;9.70;99.90;;;;;;4977109;28;20457;-77
2023/01/06 07:00:39;;;;;;;4.93;3.57;;;9.80;99.90;;;;;;4960005;28;20442;-76
2023/01/06 07:03:05;;;;;;;5.53;3.27;;;9.90;99.90;;;;;;4974636;28;20452;-76
2023/01/06 07:05:31;;;;;;;3.85;2.70;;;10.00;99.90;;;;;;4978572;28;20457;-76
2023/01/06 07:07:56;;;;;;;4.50;2.85;;;9.80;99.90;;;;;;4975239;28;20434;-75
2023/01/06 07:10:22;;;;;;;4.55;3.35;;;9.80;99.90;;;;;;4974065;28;20517;-76
2023/01/06 07:12:48;;;;;;;5.38;3.47;;;9.70;99.90;;;;;;4974131;28;20434;-75
2023/01/06 07:15:13;;;;;;;5.10;3.08;;;9.70;99.90;;;;;;4966358;28;20422;-76
2023/01/06 07:17:40;;;;;;;2.83;2.43;;;9.90;99.90;;;;;;4973672;28;20445;-79
2023/01/06 07:20:06;;;;;;;4.97;2.70;;;9.90;99.90;;;;;;4973934;28;20964;-76
2023/01/06 07:22:36;;;;;;;5.20;2.30;;;9.70;99.90;;;;;;4978239;28;20430;-82
2023/01/06 07:25:01;;;;;;;4.65;2.35;;;9.90;99.90;;;;;;4962239;28;20456;-75
2023/01/06 07:27:27;;;;;;;5.67;2.30;;;9.70;99.90;;;;;;4976044;28;20927;-80
2023/01/06 07:29:52;;;;;;;3.77;1.50;;;9.90;99.90;;;;;;4977525;28;20431;-78
2023/01/06 07:32:18;;;;;;;5.77;1.97;;;9.70;99.90;;;;;;4961063;28;20653;-79
2023/01/06 07:34:44;;;;;;;4.30;1.67;;;9.70;99.90;;;;;;4978937;28;21649;-79
2023/01/06 07:37:09;;;;;;;5.90;1.33;;;9.50;99.90;;;;;;4972820;28;20501;-79
2023/01/06 07:39:35;;;;;;;5.75;1.55;;;9.50;99.90;;;;;;4974014;28;20835;-80
2023/01/06 07:42:01;;;;;;;4.80;1.65;;;9.50;99.90;;;;;;4957225;28;20449;-79
2023/01/06 07:44:26;;;;;;;5.13;1.30;;;9.30;99.90;;;;;;4977081;28;20513;-80
2023/01/06 07:46:52;;;;;;;4.93;1.50;;;9.20;99.90;;;;;;4972492;28;20949;-80
2023/01/06 07:49:17;;;;;;;6.60;1.60;;;9.00;99.90;;;;;;4972551;28;20434;-78
2023/01/06 07:51:43;;;;;;;6.55;1.40;;;8.90;99.90;;;;;;4976963;28;20430;-80
2023/01/06 07:54:09;;;;;;;6.50;1.15;;;8.90;99.90;;;;;;4965719;28;20422;-79
2023/01/06 07:56:34;;;;;;;7.90;1.40;;;8.70;99.90;;;;;;4966305;28;20780;-79
2023/01/06 07:59:00;;;;;;;6.55;2.10;;;8.70;99.90;;;;;;4969876;28;20430;-80
2023/01/06 08:01:26;;;;;;;7.20;1.67;;;8.60;99.90;;;;;;4965254;28;20509;-79
2023/01/06 08:03:51;;;;;;;5.97;1.50;;;8.50;99.90;;;;;;4967739;28;20438;-79
2023/01/06 08:06:17;;;;;;;4.57;1.00;;;8.50;99.90;;;;;;4964914;28;20494;-79
2023/01/06 08:08:42;;;;;;;7.60;1.10;;;8.50;99.90;;;;;;4968657;28;20430;-78
2023/01/06 08:11:11;;;;;;;9.10;1.30;;;8.40;99.90;;;;;;4968382;28;20422;-79
2023/01/06 08:13:37;;;;;;;9.38;2.15;;;8.30;99.90;;;;;;4973680;28;20421;-75
2023/01/06 08:16:07;;;;;;;10.25;1.70;;;8.20;99.90;;;;;;4964726;28;20446;-75
2023/01/06 08:18:33;;;;;;;12.27;2.40;;;8.20;99.90;;;;;;4961510;28;20465;-80
2023/01/06 08:21:04;;;;;;;8.55;2.10;;;8.20;99.90;;;;;;4976250;28;20515;-76
2023/01/06 08:23:30;;;;;;;9.18;1.77;;;8.10;99.90;;;;;;4974597;28;21271;-76
2023/01/06 08:26:13;;;;;;;10.95;2.75;;;8.10;99.90;;;;;;4968133;28;20414;-79
2023/01/06 08:28:41;;;;;;;11.75;2.15;;;8.10;99.90;;;;;;4972823;28;20529;-81
2023/01/06 08:31:11;;;;;;;10.03;2.73;;;8.10;99.90;;;;;;4972775;28;20469;-76
2023/01/06 08:33:37;;;;;;;13.93;2.63;;;8.00;99.90;;;;;;4975058;28;21062;-77
2023/01/06 08:36:05;;;;;;;15.98;3.17;;;8.00;99.90;;;;;;4976534;28;20422;-76
2023/01/06 08:38:32;;;;;;;13.90;1.90;;;8.10;99.90;;;;;;4975475;28;20434;-82
2023/01/06 08:40:59;;;;;;;11.18;2.25;;;8.10;99.90;;;;;;4977832;28;20434;-79
2023/01/06 08:43:25;;;;;;;20.13;3.38;;;8.00;99.90;;;;;;4974685;28;21953;-79
2023/01/06 08:45:52;;;;;;;15.65;3.47;;;8.00;99.90;;;;;;4980068;28;20970;-79
2023/01/06 08:48:18;;;;;;;11.35;1.90;;;8.00;99.90;;;;;;4977452;28;20507;-79
2023/01/06 08:50:44;;;;;;;11.13;2.22;;;8.00;99.90;;;;;;4963654;28;20408;-80
2023/01/06 08:53:11;;;;;;;12.68;2.30;;;8.00;99.90;;;;;;4974219;28;20981;-78
2023/01/06 08:55:38;;;;;;;15.95;1.95;;;8.10;99.90;;;;;;4971575;28;20529;-76
2023/01/06 08:58:04;;;;;;;16.50;2.70;;;8.00;99.90;;;;;;4984767;28;20434;-78
2023/01/06 09:00:30;;;;;;;16.45;2.60;;;8.00;99.90;;;;;;4983141;28;20800;-80
2023/01/06 09:02:55;;;;;;;10.95;1.95;;;8.10;99.90;;;;;;4981602;28;20773;-81
2023/01/06 09:05:21;;;;;;;15.88;1.80;;;8.10;99.90;;;;;;4981463;28;20494;-76
2023/01/06 09:07:48;;;;;;;7.82;1.70;;;8.00;99.90;;;;;;4982046;28;20430;-79
2023/01/06 09:10:14;;;;;;;9.48;2.38;;;8.10;99.90;;;;;;4979664;28;20501;-80
2023/01/06 09:12:39;;;;;;;15.17;2.10;;;8.00;99.90;;;;;;4981645;28;20543;-80
2023/01/06 09:15:06;;;;;;;13.53;2.80;;;8.50;99.90;;;;;;4978074;28;20616;-81
2023/01/06 09:17:31;;;;;;;18.23;2.40;;;8.30;99.90;;;;;;4976315;28;20911;-81
2023/01/06 09:19:57;;;;;;;15.85;2.83;;;8.30;99.90;;;;;;4977619;28;20879;-75
2023/01/06 09:22:23;;;;;;;16.00;2.43;;;8.30;99.90;;;;;;4974879;28;20436;-79
2023/01/06 09:24:48;;;;;;;15.60;2.30;;;8.30;99.90;;;;;;4976289;28;20410;-76
2023/01/06 09:27:14;;;;;;;13.50;3.30;;;8.40;99.90;;;;;;4979552;28;20433;-80
2023/01/06 09:29:40;;;;;;;15.50;3.17;;;8.40;99.90;;;;;;4979835;28;20434;-80
2023/01/06 09:32:06;;;;;;;9.85;1.77;;;8.40;99.90;;;;;;4978082;28;20422;-77
2023/01/06 09:34:32;;;;;;;15.70;3.58;;;8.50;99.90;;;;;;4980210;28;20929;-81
2023/01/06 09:36:57;;;;;;;11.45;2.00;;;8.50;99.90;;;;;;4977746;28;20796;-77
2023/01/06 09:39:23;;;;;;;13.82;2.58;;;8.70;99.90;;;;;;4978831;28;20777;-81
2023/01/06 09:42:17;;;;;;;16.58;2.60;;;8.80;99.90;;;;;;4978492;28;20445;-81
2023/01/06 09:44:45;;;;;;;16.20;1.93;;;8.70;99.90;;;;;;4961566;28;20494;-77
2023/01/06 09:47:17;;;;;;;18.00;2.70;;;8.80;99.90;;;;;;4964059;28;20556;-79
2023/01/06 09:49:48;;;;;;;11.43;2.03;;;8.80;99.90;;;;;;4981520;28;20433;-76
2023/01/06 09:52:14;;;;;;;14.88;2.35;;;8.80;99.90;;;;;;4980116;28;20841;-80
2023/01/06 09:55:01;;;;;;;12.65;2.95;;;8.90;99.90;;;;;;4959506;28;20404;-80
2023/01/06 09:57:44;;;;;;;11.10;2.58;;;9.00;99.90;;;;;;4978059;28;20852;-79
2023/01/06 10:00:34;;;;;;;18.52;2.75;;;9.00;99.90;;;;;;4959787;28;20454;-81
2023/01/06 10:03:00;;;;;;;9.98;2.58;;;9.10;99.90;;;;;;4971432;28;20432;-79
2023/01/06 10:05:47;;;;;;;10.40;2.03;;;9.00;99.90;;;;;;4963619;28;20420;-79
2023/01/06 10:08:18;;;;;;;11.65;2.40;;;9.10;99.90;;;;;;4977986;28;20430;-78
2023/01/06 10:11:03;;;;;;;12.18;1.90;;;9.10;99.90;;;;;;4979845;28;21012;-79
2023/01/06 10:13:41;;;;;;;10.10;2.63;;;9.00;99.90;;;;;;4979732;28;20438;-76
2023/01/06 10:16:25;;;;;;;14.23;2.22;;;9.00;99.90;;;;;;4975128;28;20483;-78
2023/01/06 10:19:06;;;;;;;10.05;1.70;;;9.10;99.90;;;;;;4976639;28;20437;-78
2023/01/06 10:21:36;;;;;;;15.30;2.28;;;9.10;99.90;;;;;;4979354;28;20441;-78
2023/01/06 10:24:38;;;;;;;10.52;1.83;;;9.10;99.90;;;;;;4960782;28;20448;-79
2023/01/06 10:27:34;;;;;;;8.82;1.33;;;9.00;99.90;;;;;;4964878;28;20453;-77
2023/01/06 10:30:02;;;;;;;11.93;1.58;;;9.10;99.90;;;;;;4968088;28;20509;-79
2023/01/06 10:32:33;;;;;;;14.80;2.05;;;9.00;99.90;;;;;;4973973;28;20503;-79
2023/01/06 10:34:59;;;;;;;12.13;1.70;;;9.00;99.90;;;;;;4976193;28;20476;-76
2023/01/06 10:37:35;;;;;;;9.77;1.98;;;8.90;99.90;;;;;;4974907;28;20509;-80
2023/01/06 10:40:16;;;;;;;10.83;2.10;;;9.00;99.90;;;;;;4976515;28;20831;-79
2023/01/06 10:43:02;;;;;;;12.68;2.20;;;8.90;99.90;;;;;;4972753;28;20466;-81
2023/01/06 10:45:44;;;;;;;11.02;2.17;;;9.00;99.90;;;;;;4968139;28;20438;-80
2023/01/06 10:48:15;;;;;;;11.45;2.45;;;9.30;99.90;;;;;;4973292;28;20434;-79
2023/01/06 10:50:41;;;;;;;10.55;2.13;;;9.30;99.90;;;;;;4966037;28;21008;-75
2023/01/06 10:53:10;;;;;;;11.93;2.23;;;9.30;99.90;;;;;;4970906;28;20426;-75
2023/01/06 10:55:42;;;;;;;11.05;2.40;;;9.20;99.90;;;;;;4971583;28;20428;-78
2023/01/06 10:58:10;;;;;;;16.90;2.38;;;9.20;99.90;;;;;;4967826;28;20446;-75
2023/01/06 11:00:36;;;;;;;13.57;2.72;;;9.40;99.90;;;;;;4977665;28;21378;-80
2023/01/06 11:03:04;;;;;;;8.20;1.98;;;9.20;99.90;;;;;;4967744;28;21039;-76
2023/01/06 11:05:33;;;;;;;15.00;3.00;;;9.20;99.90;;;;;;4978586;28;20558;-78
2023/01/06 11:08:13;;;;;;;13.68;2.75;;;9.30;99.90;;;;;;4976968;28;20520;-77
2023/01/06 11:10:43;;;;;;;13.55;2.33;;;9.30;99.90;;;;;;4978331;28;20442;-78
2023/01/06 11:13:31;;;;;;;11.10;2.55;;;9.30;99.90;;;;;;4975893;28;20481;-77
2023/01/06 11:16:03;;;;;;;11.38;2.17;;;9.40;99.90;;;;;;4973624;28;20508;-78
2023/01/06 11:18:35;;;;;;;9.95;2.13;;;9.40;99.90;;;;;;4963046;28;20430;-78
2023/01/06 11:21:09;;;;;;;12.02;1.77;;;9.70;99.90;;;;;;4978714;28;20438;-76
2023/01/06 11:23:37;;;;;;;13.20;1.90;;;9.50;99.90;;;;;;4976114;28;20837;-77
2023/01/06 11:26:12;;;;;;;11.82;2.78;;;9.40;99.90;;;;;;4976962;28;20481;-75
2023/01/06 11:28:43;;;;;;;12.77;2.58;;;9.60;99.90;;;;;;4977488;28;20463;-77
2023/01/06 11:31:18;;;;;;;14.02;2.15;;;9.50;99.90;;;;;;4977925;28;20861;-78
2023/01/06 11:33:58;;;;;;;12.68;2.40;;;9.50;99.90;;;;;;4974658;28;20434;-78
2023/01/06 11:36:27;;;;;;;14.60;3.23;;;9.60;99.90;;;;;;4975201;28;20802;-75
2023/01/06 11:39:14;;;;;;;10.70;2.00;;;9.60;99.90;;;;;;4975981;28;20925;-76
2023/01/06 11:41:44;;;;;;;13.60;3.22;;;9.70;99.90;;;;;;4977843;28;20430;-79
2023/01/06 11:44:20;;;;;;;10.02;1.83;;;9.70;99.90;;;;;;4975809;28;20781;-79
2023/01/06 11:46:54;;;;;;;9.27;2.00;;;9.70;99.90;;;;;;4975480;28;20434;-79
2023/01/06 11:49:36;;;;;;;14.00;3.40;;;9.80;99.90;;;;;;4973850;28;20437;-79
2023/01/06 11:52:29;;;;;;;13.07;2.38;;;9.70;99.90;;;;;;4975407;28;20437;-77
2023/01/06 11:55:19;;;;;;;12.15;1.90;;;9.60;99.90;;;;;;4975700;28;20949;-79
2023/01/06 11:57:58;;;;;;;15.27;2.50;;;9.60;99.90;;;;;;4977433;28;20422;-78
2023/01/06 12:00:35;;;;;;;9.98;2.10;;;9.60;99.90;;;;;;4972816;28;20489;-76
2023/01/06 12:03:16;;;;;;;10.98;1.75;;;9.60;99.90;;;;;;4970335;28;20421;-79
2023/01/06 12:05:48;;;;;;;8.93;2.27;;;9.70;99.90;;;;;;4957725;28;20434;-77
2023/01/06 12:08:25;;;;;;;13.82;2.65;;;10.00;99.90;;;;;;4972183;28;20426;-80
2023/01/06 12:10:59;;;;;;;15.68;3.13;;;9.60;99.90;;;;;;4976342;28;20960;-78
2023/01/06 12:13:26;;;;;;;11.17;2.87;;;9.60;99.90;;;;;;4975159;28;20523;-75
2023/01/06 12:16:02;;;;;;;10.17;3.20;;;9.50;99.90;;;;;;4976925;28;20506;-75
2023/01/06 12:18:32;;;;;;;14.38;3.83;;;9.50;99.90;;;;;;4977396;28;20461;-78
2023/01/06 12:21:25;;;;;;;10.90;2.13;;;9.40;99.90;;;;;;4813666;23;22514;-74
2023/01/06 12:23:52;;;;;;;15.25;2.90;;;9.40;99.90;;;;;;4948926;28;20448;-76
2023/01/06 12:26:22;;;;;;;15.43;2.33;;;9.40;99.90;;;;;;4946267;28;20496;-79
2023/01/06 12:28:51;;;;;;;11.80;2.80;;;9.40;99.90;;;;;;4954230;28;20422;-79
2023/01/06 12:31:29;;;;;;;10.37;2.00;;;9.30;99.90;;;;;;4939425;28;20410;-79
2023/01/06 12:34:00;;;;;;;13.80;2.75;;;9.30;99.90;;;;;;4951643;28;20436;-77
2023/01/06 12:36:36;;;;;;;8.57;2.53;;;9.30;99.90;;;;;;4955748;28;20432;-76
2023/01/06 12:39:09;;;;;;;15.82;2.83;;;9.30;99.90;;;;;;4955582;28;20435;-76
2023/01/06 12:41:41;;;;;;;12.13;1.92;;;9.30;99.90;;;;;;4955305;28;20444;-79
2023/01/06 12:45:05;;;;;;;10.95;2.55;;;9.30;99.90;;;;;;4966127;28;20426;-75
2023/01/06 12:47:36;;;;;;;10.52;2.13;;;9.30;99.90;;;;;;4932611;28;20502;-79
2023/01/06 12:50:15;;;;;;;12.95;3.15;;;9.40;99.90;;;;;;4931805;28;20581;-77
2023/01/06 12:52:50;;;;;;;15.68;2.72;;;9.30;99.90;;;;;;4947097;28;21089;-78
2023/01/06 12:55:25;;;;;;;7.40;1.92;;;9.30;99.90;;;;;;4952190;28;20460;-78
2023/01/06 12:58:06;;;;;;;13.05;2.92;;;9.30;99.90;;;;;;4947925;28;20977;-78
2023/01/06 13:01:00;;;;;;;11.02;2.53;;;9.30;99.90;;;;;;4970992;28;20444;-78
2023/01/06 13:03:58;;;;;;;7.47;1.85;;;9.20;99.90;;;;;;4953373;28;20428;-77
2023/01/06 13:06:33;;;;;;;11.07;1.75;;;9.10;99.90;;;;;;4925629;28;20563;-76
2023/01/06 13:08:58;;;;;;;9.80;2.10;;;9.10;99.90;;;;;;4948340;28;20428;-78
2023/01/06 13:11:56;;;;;;;16.50;3.27;;;9.10;99.90;;;;;;4955309;28;20927;-76
2023/01/06 13:14:51;;;;;;;14.02;3.15;;;9.00;99.90;;;;;;4937374;29;20426;-77
2023/01/06 13:17:30;;;;;;;10.80;2.38;;;9.10;99.90;;;;;;4945913;28;20489;-76